Time;durP1;ratioP1;P1;durP2;ratioP2;P2;SDS_P1;SDS_P2;PMS_P1;PMS_P2;Temp;Humidity;BMP_temperature;BMP_pressure;BME280_temperature;BME280_humidity;BME280_pressure;Samples;Min_cycle;Max_cycle;Signal;HPM_P1;HPM_P2
2023/06/21 13:02:15;;;;;;;3.00;1.80;;;;;;;;;;3868606;36;43877;-60
2023/06/21 13:05:02;;;;;;;3.70;1.50;;;;;;;;;;4391075;32;61088;-58
2023/06/21 13:07:48;;;;;;;3.15;1.27;;;;;;;;;;4416972;32;70467;-59
2023/06/21 13:10:40;;;;;;;3.33;1.90;;;;;;;;;;4426399;32;69141;-58
2023/06/21 13:13:26;;;;;;;;;;;;;;;;;;4390654;32;68537;-58
2023/06/21 13:16:14;;;;;;;1.58;1.20;;;;;;;;;;4403733;32;71894;-59
2023/06/21 13:19:01;;;;;;;2.35;1.65;;;;;;;;;;4426584;32;65987;-59
2023/06/21 13:21:48;;;;;;;5.37;2.20;;;;;;;;;;4379553;32;67750;-59
2023/06/21 13:24:34;;;;;;;1.58;1.17;;;;;;;;;;4393013;32;58910;-59
2023/06/21 13:27:21;;;;;;;2.15;1.08;;;;;;;;;;4403407;32;72079;-60
2023/06/21 13:30:09;;;;;;;2.87;1.35;;;;;;;;;;4403299;32;64982;-59
2023/06/21 13:32:56;;;;;;;1.75;1.40;;;;;;;;;;4403655;32;67739;-59
2023/06/21 13:35:43;;;;;;;3.08;1.45;;;;;;;;;;4398775;32;60463;-57
2023/06/21 13:38:33;;;;;;;2.90;0.90;;;;;;;;;;4388137;32;69498;-59
2023/06/21 13:41:20;;;;;;;2.37;1.30;;;;;;;;;;4398469;32;68332;-58
2023/06/21 13:44:06;;;;;;;4.40;1.90;;;;;;;;;;4385295;32;66660;-59
2023/06/21 13:46:53;;;;;;;5.12;1.60;;;;;;;;;;4387874;32;71629;-58
2023/06/21 13:49:48;;;;;;;3.47;1.20;;;;;;;;;;4377653;32;64883;-58
2023/06/21 13:52:35;;;;;;;2.08;1.10;;;;;;;;;;4398383;32;69534;-59
2023/06/21 13:55:22;;;;;;;3.28;1.23;;;;;;;;;;4387965;32;67924;-58
2023/06/21 13:58:09;;;;;;;1.92;1.12;;;;;;;;;;4399227;32;70781;-59
2023/06/21 14:00:56;;;;;;;4.62;1.40;;;;;;;;;;4390211;32;64944;-59
2023/06/21 14:03:42;;;;;;;1.90;1.30;;;;;;;;;;4388092;32;67643;-59
2023/06/21 14:06:29;;;;;;;3.28;1.42;;;;;;;;;;4398852;32;59609;-59
2023/06/21 14:09:16;;;;;;;1.30;0.93;;;;;;;;;;4387944;32;69643;-58
2023/06/21 14:12:02;;;;;;;;;;;;;;;;;;4371188;32;70414;-58
2023/06/21 14:14:49;;;;;;;3.42;1.60;;;;;;;;;;4378250;32;67712;-59
2023/06/21 14:17:36;;;;;;;5.15;1.80;;;;;;;;;;4389246;32;60050;-58
2023/06/21 14:20:23;;;;;;;2.90;1.58;;;;;;;;;;4388662;32;70379;-59
2023/06/21 14:23:11;;;;;;;2.47;1.73;;;;;;;;;;4378208;32;69663;-59
2023/06/21 14:25:57;;;;;;;2.30;1.33;;;;;;;;;;4374657;32;67350;-60
2023/06/21 14:28:44;;;;;;;1.55;1.40;;;;;;;;;;4388332;32;71809;-59
2023/06/21 14:31:32;;;;;;;3.25;1.75;;;;;;;;;;4387914;32;64758;-59
2023/06/21 14:34:18;;;;;;;4.78;1.77;;;;;;;;;;4363911;32;68552;-58
2023/06/21 14:37:05;;;;;;;2.22;1.62;;;;;;;;;;4388365;32;59450;-59
2023/06/21 14:39:51;;;;;;;3.05;1.50;;;;;;;;;;4363730;32;70188;-59
2023/06/21 14:42:39;;;;;;;2.58;1.65;;;;;;;;;;4387955;32;65271;-58
2023/06/21 14:45:25;;;;;;;;;;;;;;;;;;4375133;32;68067;-58
2023/06/21 14:48:12;;;;;;;4.03;1.80;;;;;;;;;;4387179;32;60457;-59
2023/06/21 14:50:59;;;;;;;5.35;1.80;;;;;;;;;;4374531;32;71210;-59
2023/06/21 14:53:46;;;;;;;2.78;1.50;;;;;;;;;;4387766;32;69030;-58
2023/06/21 14:56:33;;;;;;;5.40;2.00;;;;;;;;;;4376824;32;67791;-59
2023/06/21 14:59:23;;;;;;;7.43;1.70;;;;;;;;;;4364314;32;71282;-59
2023/06/21 15:02:10;;;;;;;5.93;2.10;;;;;;;;;;4387203;32;66112;-59
2023/06/21 15:04:57;;;;;;;2.47;2.00;;;;;;;;;;4377276;32;67723;-58
2023/06/21 15:07:44;;;;;;;2.85;1.75;;;;;;;;;;4374473;32;68725;-59
2023/06/21 15:10:31;;;;;;;2.30;1.70;;;;;;;;;;4366088;32;71867;-58
2023/06/21 15:13:17;;;;;;;2.17;1.40;;;;;;;;;;4387456;32;65830;-59
2023/06/21 15:16:05;;;;;;;4.50;1.80;;;;;;;;;;4363858;32;68488;-59
2023/06/21 15:18:52;;;;;;;2.97;1.92;;;;;;;;;;4377019;32;60496;-59
2023/06/21 15:21:39;;;;;;;3.95;2.10;;;;;;;;;;4399281;32;70186;-58
2023/06/21 15:24:26;;;;;;;2.60;1.77;;;;;;;;;;4362970;32;69210;-58
2023/06/21 15:27:12;;;;;;;3.37;1.80;;;;;;;;;;4388020;32;67515;-59
2023/06/21 15:29:59;;;;;;;2.92;1.60;;;;;;;;;;4374318;32;60672;-58
2023/06/21 15:32:48;;;;;;;4.20;1.50;;;;;;;;;;4374352;32;71194;-59
2023/06/21 15:35:34;;;;;;;5.40;2.37;;;;;;;;;;4377734;32;68911;-58
2023/06/21 15:38:21;;;;;;;;;;;;;;;;;;4373852;32;67770;-59
2023/06/21 15:41:07;;;;;;;3.85;2.70;;;;;;;;;;4387494;32;72271;-59
2023/06/21 15:43:54;;;;;;;;;;;;;;;;;;4377012;32;66462;-59
2023/06/21 15:46:40;;;;;;;2.97;1.45;;;;;;;;;;4387275;32;67935;-59
2023/06/21 15:49:27;;;;;;;2.35;2.05;;;;;;;;;;4374287;32;60722;-59
2023/06/21 15:52:14;;;;;;;2.83;1.73;;;;;;;;;;4362806;32;70344;-60
2023/06/21 15:55:01;;;;;;;5.68;2.17;;;;;;;;;;4365962;32;66026;-58
2023/06/21 15:57:48;;;;;;;3.53;2.20;;;;;;;;;;4376761;32;67716;-59
2023/06/21 16:00:35;;;;;;;8.75;2.70;;;;;;;;;;4380696;32;59311;-58
2023/06/21 16:03:22;;;;;;;5.65;2.08;;;;;;;;;;4383238;32;69660;-59
2023/06/21 16:06:08;;;;;;;;;;;;;;;;;;4388223;32;68331;-59
2023/06/21 16:08:55;;;;;;;2.90;1.73;;;;;;;;;;4373807;32;65622;-60
2023/06/21 16:11:42;;;;;;;5.62;1.70;;;;;;;;;;4365623;32;72057;-59
2023/06/21 16:14:29;;;;;;;4.80;1.70;;;;;;;;;;4376262;32;65961;-59
2023/06/21 16:17:17;;;;;;;2.20;1.52;;;;;;;;;;4387070;32;66487;-59
2023/06/21 16:20:04;;;;;;;3.78;2.03;;;;;;;;;;4387556;32;67690;-60
2023/06/21 16:22:50;;;;;;;4.15;2.20;;;;;;;;;;4362573;32;71945;-60
2023/06/21 16:25:37;;;;;;;;;;;;;;;;;;4384269;32;66919;-59
2023/06/21 16:31:07;;;;;;;3.35;2.20;;;;;;;;;;3868972;36;43783;-59
2023/06/21 16:33:56;;;;;;;3.50;1.92;;;;;;;;;;4390722;32;60865;-60
2023/06/21 16:36:43;;;;;;;4.20;2.20;;;;;;;;;;4388442;32;69579;-58
2023/06/21 16:39:30;;;;;;;3.55;1.80;;;;;;;;;;4399573;32;68982;-58
2023/06/21 16:42:16;;;;;;;4.12;2.00;;;;;;;;;;4399241;32;66702;-59
2023/06/21 16:45:04;;;;;;;4.15;1.90;;;;;;;;;;4388232;32;71063;-59
2023/06/21 16:47:51;;;;;;;2.90;1.80;;;;;;;;;;4399145;32;66291;-58
2023/06/21 16:50:37;;;;;;;2.42;1.70;;;;;;;;;;4388350;32;66279;-58
2023/06/21 16:53:24;;;;;;;1.23;1.12;;;;;;;;;;4388584;32;60223;-59
2023/06/21 16:56:10;;;;;;;2.33;1.55;;;;;;;;;;4377017;32;70077;-59
2023/06/21 16:58:57;;;;;;;2.33;1.58;;;;;;;;;;4388196;32;65919;-59
2023/06/21 17:01:45;;;;;;;2.45;1.58;;;;;;;;;;4388304;32;67145;-59
2023/06/21 17:04:32;;;;;;;4.05;1.70;;;;;;;;;;4375310;32;61340;-58
2023/06/21 17:07:18;;;;;;;2.60;1.60;;;;;;;;;;4411663;32;70305;-60
2023/06/21 17:10:05;;;;;;;;;;;;;;;;;;4388726;32;68411;-59
2023/06/21 17:12:52;;;;;;;6.28;2.20;;;;;;;;;;4377519;32;66891;-58
2023/06/21 17:15:38;;;;;;;2.78;1.98;;;;;;;;;;4374173;32;72048;-59
2023/06/21 17:18:25;;;;;;;3.20;2.20;;;;;;;;;;4388335;32;65924;-58
2023/06/21 17:21:12;;;;;;;6.68;2.85;;;;;;;;;;4374647;32;69773;-58
2023/06/21 17:24:01;;;;;;;3.60;2.12;;;;;;;;;;4410583;32;67670;-60
2023/06/21 17:26:47;;;;;;;4.03;2.10;;;;;;;;;;4398554;32;70859;-61
2023/06/21 17:29:33;;;;;;;;;;;;;;;;;;4377076;32;65067;-59
2023/06/21 17:32:20;;;;;;;4.85;2.40;;;;;;;;;;4398582;32;67472;-58
2023/06/21 17:35:08;;;;;;;3.85;2.30;;;;;;;;;;4391747;32;59231;-58
2023/06/21 17:37:55;;;;;;;3.53;2.40;;;;;;;;;;4373808;32;71293;-59
2023/06/21 17:40:42;;;;;;;6.22;2.20;;;;;;;;;;4381859;32;70280;-59
2023/06/21 17:43:29;;;;;;;5.82;2.47;;;;;;;;;;4385368;32;68077;-60
2023/06/21 17:46:16;;;;;;;4.53;2.30;;;;;;;;;;4366712;32;59997;-59
2023/06/21 17:49:03;;;;;;;3.67;2.28;;;;;;;;;;4409000;32;70883;-59
2023/06/21 17:51:50;;;;;;;;;;;;;;;;;;4364889;32;69826;-60
2023/06/21 17:54:38;;;;;;;6.18;2.10;;;;;;;;;;4378217;32;68030;-60
2023/06/21 17:57:24;;;;;;;3.72;2.20;;;;;;;;;;4390409;32;71883;-59
2023/06/21 18:00:12;;;;;;;3.85;2.28;;;;;;;;;;4379014;32;65121;-59
2023/06/21 18:02:59;;;;;;;4.85;2.58;;;;;;;;;;4378186;32;66789;-59
2023/06/21 18:05:46;;;;;;;4.30;2.28;;;;;;;;;;4367154;32;59923;-59
2023/06/21 18:08:32;;;;;;;4.70;2.80;;;;;;;;;;4374089;32;70979;-59
2023/06/21 18:11:20;;;;;;;4.78;2.85;;;;;;;;;;4377360;32;65792;-59
2023/06/21 18:14:23;;;;;;;7.50;2.83;;;;;;;;;;3847657;37;43035;-58
2023/06/21 18:17:09;;;;;;;;;;;;;;;;;;4377994;32;59299;-59
2023/06/21 18:19:56;;;;;;;6.43;3.00;;;;;;;;;;4389951;32;68042;-59
2023/06/21 18:22:43;;;;;;;5.95;2.83;;;;;;;;;;4398648;32;69143;-59
2023/06/21 18:25:30;;;;;;;4.53;2.75;;;;;;;;;;4399103;32;66763;-59
2023/06/21 18:28:17;;;;;;;5.15;2.70;;;;;;;;;;4409908;32;71775;-59
2023/06/21 18:31:04;;;;;;;;;;;;;;;;;;4377699;32;65824;-58
2023/06/21 18:33:51;;;;;;;5.50;3.10;;;;;;;;;;4399214;32;66575;-59
2023/06/21 18:36:37;;;;;;;;;;;;;;;;;;4385511;32;61389;-59
2023/06/21 18:39:24;;;;;;;3.78;2.50;;;;;;;;;;4394593;32;70958;-58
2023/06/21 18:42:11;;;;;;;4.37;2.20;;;;;;;;;;4394684;32;66381;-59
2023/06/21 18:44:58;;;;;;;5.78;2.58;;;;;;;;;;4383946;32;67604;-58
2023/06/21 18:47:47;;;;;;;4.95;2.55;;;;;;;;;;4383893;32;60250;-59
2023/06/21 18:50:34;;;;;;;4.95;2.42;;;;;;;;;;4383748;32;70390;-58
2023/06/21 18:53:20;;;;;;;5.37;2.53;;;;;;;;;;4373060;32;69292;-58
2023/06/21 18:56:07;;;;;;;6.68;2.42;;;;;;;;;;4383657;32;66782;-59
2023/06/21 18:58:57;;;;;;;7.10;2.75;;;;;;;;;;4372775;32;71310;-59
2023/06/21 19:01:44;;;;;;;5.62;2.58;;;;;;;;;;4372096;32;67162;-59
2023/06/21 19:04:31;;;;;;;5.25;2.60;;;;;;;;;;4372319;32;69077;-59
2023/06/21 19:07:18;;;;;;;10.15;3.45;;;;;;;;;;4383479;32;66672;-59
2023/06/21 19:10:05;;;;;;;5.75;2.90;;;;;;;;;;4397641;32;71820;-59
2023/06/21 19:12:51;;;;;;;6.05;2.83;;;;;;;;;;4389835;32;66211;-58
2023/06/21 19:15:38;;;;;;;;;;;;;;;;;;4398916;32;67944;-59
2023/06/21 19:18:27;;;;;;;5.75;2.87;;;;;;;;;;4374200;32;59804;-59
2023/06/21 19:21:13;;;;;;;3.92;2.33;;;;;;;;;;4384327;32;71019;-59
2023/06/21 19:24:00;;;;;;;4.55;2.45;;;;;;;;;;4379073;32;70120;-59
2023/06/21 19:26:47;;;;;;;4.12;2.45;;;;;;;;;;4361575;32;68045;-59
2023/06/21 19:29:35;;;;;;;3.72;2.22;;;;;;;;;;4386961;32;59222;-58
2023/06/21 19:32:22;;;;;;;2.75;2.00;;;;;;;;;;4363294;32;70586;-59
2023/06/21 19:35:17;;;;;;;4.68;2.00;;;;;;;;;;4376149;32;69389;-59
2023/06/21 19:38:03;;;;;;;4.40;2.58;;;;;;;;;;4374398;32;66773;-61
2023/06/21 19:40:50;;;;;;;3.85;2.33;;;;;;;;;;4372637;32;71695;-58
2023/06/21 19:43:37;;;;;;;5.25;2.25;;;;;;;;;;4384091;32;65028;-59
2023/06/21 19:46:25;;;;;;;3.75;2.15;;;;;;;;;;4383355;32;67526;-60
2023/06/21 19:49:14;;;;;;;3.47;1.95;;;;;;;;;;4383484;32;59126;-59
2023/06/21 19:52:00;;;;;;;3.42;2.05;;;;;;;;;;4372779;32;70472;-60
2023/06/21 19:54:47;;;;;;;2.95;1.75;;;;;;;;;;4372493;32;64821;-59
2023/06/21 19:57:34;;;;;;;3.22;2.22;;;;;;;;;;4362239;32;66576;-59
2023/06/21 20:00:23;;;;;;;4.68;2.15;;;;;;;;;;4385003;32;60996;-59
2023/06/21 20:03:10;;;;;;;6.12;2.10;;;;;;;;;;4376131;32;69746;-59
2023/06/21 20:05:56;;;;;;;3.87;2.50;;;;;;;;;;4377233;32;69684;-58
2023/06/21 20:08:43;;;;;;;;;;;;;;;;;;4384803;32;67659;-59
2023/06/21 20:11:29;;;;;;;3.58;2.08;;;;;;;;;;4383145;32;70936;-59
2023/06/21 20:14:16;;;;;;;;;;;;;;;;;;4383213;32;65046;-59
2023/06/21 20:17:03;;;;;;;3.85;1.80;;;;;;;;;;4395464;32;68323;-58
2023/06/21 20:19:49;;;;;;;2.12;1.58;;;;;;;;;;4371466;32;66877;-58
2023/06/21 20:22:36;;;;;;;2.35;1.60;;;;;;;;;;4360958;32;72311;-59
2023/06/21 20:25:24;;;;;;;2.83;1.73;;;;;;;;;;4372707;32;65012;-60
2023/06/21 20:28:11;;;;;;;3.42;1.83;;;;;;;;;;4361779;32;67963;-60
2023/06/21 20:30:57;;;;;;;2.72;1.52;;;;;;;;;;4382797;32;60438;-58
2023/06/21 20:33:44;;;;;;;2.42;1.77;;;;;;;;;;4384341;32;70393;-58
2023/06/21 20:36:33;;;;;;;3.25;1.70;;;;;;;;;;4360602;32;68410;-58
2023/06/21 20:39:21;;;;;;;5.72;1.87;;;;;;;;;;4361721;32;67527;-58
2023/06/21 20:42:08;;;;;;;2.47;1.62;;;;;;;;;;4372442;32;59194;-59
2023/06/21 20:45:00;;;;;;;2.90;1.80;;;;;;;;;;4371806;32;70465;-59
2023/06/21 20:47:48;;;;;;;2.33;1.50;;;;;;;;;;4371841;32;70243;-58
2023/06/21 20:50:34;;;;;;;3.00;1.70;;;;;;;;;;4393240;32;66741;-59
2023/06/21 20:53:20;;;;;;;2.97;1.50;;;;;;;;;;4382179;32;70872;-59
2023/06/21 20:56:07;;;;;;;2.35;1.40;;;;;;;;;;4360957;32;65820;-58
2023/06/21 20:58:55;;;;;;;2.03;1.80;;;;;;;;;;4382778;32;67469;-58
2023/06/21 21:01:42;;;;;;;2.03;1.62;;;;;;;;;;4382515;32;60201;-58
2023/06/21 21:04:28;;;;;;;3.58;1.80;;;;;;;;;;4371490;32;69637;-59
2023/06/21 21:07:18;;;;;;;2.03;1.65;;;;;;;;;;4383669;32;66043;-59
2023/06/21 21:10:04;;;;;;;;;;;;;;;;;;4361097;32;67885;-58
2023/06/21 21:12:51;;;;;;;3.58;1.80;;;;;;;;;;4360327;32;60179;-59
2023/06/21 21:15:38;;;;;;;2.30;1.37;;;;;;;;;;4370898;32;70994;-60
2023/06/21 21:18:25;;;;;;;5.60;1.70;;;;;;;;;;4360802;32;66714;-58
2023/06/21 21:21:12;;;;;;;3.42;1.80;;;;;;;;;;4372399;32;67521;-59
2023/06/21 21:24:00;;;;;;;3.80;1.77;;;;;;;;;;4371588;32;70885;-59
2023/06/21 21:26:46;;;;;;;3.12;1.80;;;;;;;;;;4382585;32;64629;-59
2023/06/21 21:29:33;;;;;;;2.28;1.52;;;;;;;;;;4361981;32;68088;-59
2023/06/21 21:32:20;;;;;;;2.95;1.70;;;;;;;;;;4370866;32;67397;-59
2023/06/21 21:35:07;;;;;;;1.98;1.55;;;;;;;;;;4371098;32;71768;-58
2023/06/21 21:37:54;;;;;;;3.40;1.70;;;;;;;;;;4371389;32;65305;-58
2023/06/21 21:40:41;;;;;;;5.03;2.00;;;;;;;;;;4371396;32;67781;-58
2023/06/21 21:43:28;;;;;;;1.85;1.50;;;;;;;;;;4371643;32;59206;-59
2023/06/21 21:46:14;;;;;;;2.28;1.52;;;;;;;;;;4371464;32;70456;-58
2023/06/21 21:49:01;;;;;;;2.85;2.15;;;;;;;;;;4371086;32;68276;-58
2023/06/21 21:51:48;;;;;;;2.83;1.75;;;;;;;;;;4371410;32;67490;-58
2023/06/21 21:54:35;;;;;;;2.92;1.80;;;;;;;;;;4371588;32;70960;-59
2023/06/21 21:57:21;;;;;;;;;;;;;;;;;;4372662;32;70535;-57
2023/06/21 22:00:13;;;;;;;2.72;1.33;;;;;;;;;;4374293;32;69770;-60
2023/06/21 22:02:59;;;;;;;2.37;1.50;;;;;;;;;;4374188;32;68351;-59
2023/06/21 22:05:47;;;;;;;;;;;;;;;;;;4360972;32;71621;-58
2023/06/21 22:08:34;;;;;;;2.65;1.50;;;;;;;;;;4371319;32;66449;-59
2023/06/21 22:11:21;;;;;;;2.47;1.40;;;;;;;;;;4381694;32;66593;-58
2023/06/21 22:14:09;;;;;;;3.90;1.98;;;;;;;;;;4360367;32;59156;-59
2023/06/21 22:16:56;;;;;;;1.83;1.40;;;;;;;;;;4371908;32;71905;-61
2023/06/21 22:19:42;;;;;;;;;;;;;;;;;;4381894;32;69495;-59
2023/06/21 22:22:29;;;;;;;4.37;1.60;;;;;;;;;;4382921;32;67392;-59
2023/06/21 22:25:16;;;;;;;3.53;1.58;;;;;;;;;;4359889;32;60654;-59
2023/06/21 22:28:02;;;;;;;;;;;;;;;;;;4371245;32;69574;-58
2023/06/21 22:30:49;;;;;;;2.92;1.85;;;;;;;;;;4382001;32;69630;-61
2023/06/21 22:33:35;;;;;;;;;;;;;;;;;;4371194;32;66762;-59
2023/06/21 22:36:22;;;;;;;2.10;1.87;;;;;;;;;;4382678;32;70648;-59
2023/06/21 22:39:09;;;;;;;2.80;1.80;;;;;;;;;;4360321;32;64958;-59
2023/06/21 22:41:55;;;;;;;;;;;;;;;;;;4371213;32;66611;-58
2023/06/21 22:44:42;;;;;;;1.77;1.42;;;;;;;;;;4381814;32;59938;-59
2023/06/21 22:47:29;;;;;;;2.25;1.60;;;;;;;;;;4360124;32;71839;-59
2023/06/21 22:50:15;;;;;;;;;;;;;;;;;;4360557;32;65904;-59
2023/06/21 22:53:03;;;;;;;3.58;1.80;;;;;;;;;;4380641;32;68634;-58
2023/06/21 22:55:49;;;;;;;3.40;2.08;;;;;;;;;;4371093;32;60084;-58
2023/06/21 22:58:36;;;;;;;2.92;1.85;;;;;;;;;;4370751;32;70298;-58
2023/06/21 23:01:23;;;;;;;;;;;;;;;;;;4395440;32;68457;-59
2023/06/21 23:04:09;;;;;;;1.83;1.52;;;;;;;;;;4375906;32;68648;-59
2023/06/21 23:06:56;;;;;;;3.62;2.00;;;;;;;;;;4375571;32;70853;-59
2023/06/21 23:09:42;;;;;;;;;;;;;;;;;;4351953;32;71109;-59
2023/06/21 23:12:37;;;;;;;3.58;2.15;;;;;;;;;;4384723;32;69177;-59
2023/06/21 23:15:24;;;;;;;3.10;1.80;;;;;;;;;;4373738;32;66785;-60
2023/06/21 23:18:11;;;;;;;3.90;1.70;;;;;;;;;;4372958;32;70749;-58
2023/06/21 23:21:00;;;;;;;;;;;;;;;;;;4373308;32;65081;-59
2023/06/21 23:23:46;;;;;;;3.58;2.03;;;;;;;;;;4373490;32;68253;-59
2023/06/21 23:26:33;;;;;;;2.47;1.50;;;;;;;;;;4362568;32;60151;-59
2023/06/21 23:29:20;;;;;;;3.00;1.87;;;;;;;;;;4372917;32;70530;-58
2023/06/21 23:32:09;;;;;;;3.08;1.65;;;;;;;;;;4373093;32;69395;-59
2023/06/21 23:34:56;;;;;;;2.80;1.73;;;;;;;;;;4372752;32;67002;-58
2023/06/21 23:37:42;;;;;;;2.72;1.67;;;;;;;;;;4371977;32;58097;-59
2023/06/21 23:40:33;;;;;;;3.55;1.73;;;;;;;;;;4373002;32;69415;-60
2023/06/21 23:43:19;;;;;;;3.05;2.00;;;;;;;;;;4371677;32;69984;-58
2023/06/21 23:46:07;;;;;;;2.42;1.73;;;;;;;;;;4383193;32;66773;-60
2023/06/21 23:48:53;;;;;;;;;;;;;;;;;;4373206;32;70779;-59
2023/06/21 23:51:40;;;;;;;2.90;1.60;;;;;;;;;;4384812;32;65704;-59
2023/06/21 23:54:26;;;;;;;3.78;1.95;;;;;;;;;;4382930;32;67834;-59
2023/06/21 23:57:13;;;;;;;3.42;1.60;;;;;;;;;;4373022;32;60199;-60
